Time;durP1;ratioP1;P1;durP2;ratioP2;P2;SDS_P1;SDS_P2;PMS_P1;PMS_P2;Temp;Humidity;BMP_temperature;BMP_pressure;BME280_temperature;BME280_humidity;BME280_pressure;Samples;Min_cycle;Max_cycle;Signal;HPM_P1;HPM_P2
2023/10/16 00:00:32;;;;;;;0.30;0.30;;;;;;;;;;6251405;28;20102;-69
2023/10/16 00:03:34;;;;;;;0.73;0.20;;;;;;;;;;6256707;28;20045;-70
2023/10/16 00:06:37;;;;;;;6.80;1.00;;;;;;;;;;6252242;28;20057;-69
2023/10/16 00:09:41;;;;;;;0.98;0.20;;;;;;;;;;6256600;28;20084;-71
2023/10/16 00:12:43;;;;;;;2.75;0.77;;;;;;;;;;6233257;28;20045;-71
2023/10/16 00:15:49;;;;;;;0.60;0.20;;;;;;;;;;6249303;28;20112;-69
2023/10/16 00:18:53;;;;;;;1.85;0.30;;;;;;;;;;6249075;28;20230;-69
2023/10/16 00:21:57;;;;;;;0.57;0.20;;;;;;;;;;6253197;28;20057;-70
2023/10/16 00:25:00;;;;;;;0.22;0.13;;;;;;;;;;6250854;28;20294;-74
2023/10/16 00:28:05;;;;;;;0.25;0.10;;;;;;;;;;6257748;28;20081;-70
2023/10/16 00:31:08;;;;;;;2.55;0.30;;;;;;;;;;6248715;28;20245;-70
2023/10/16 00:34:10;;;;;;;0.57;0.15;;;;;;;;;;6246153;28;20050;-69
2023/10/16 00:37:14;;;;;;;2.65;0.35;;;;;;;;;;6250781;28;20046;-74
2023/10/16 00:40:31;;;;;;;0.60;0.40;;;;;;;;;;6227398;28;20239;-70
2023/10/16 00:43:36;;;;;;;1.40;0.40;;;;;;;;;;6235310;28;20116;-72
2023/10/16 00:46:38;;;;;;;0.38;0.28;;;;;;;;;;6228246;28;20060;-71
2023/10/16 00:49:43;;;;;;;1.00;0.35;;;;;;;;;;6226457;28;20049;-69
2023/10/16 00:52:46;;;;;;;0.93;0.30;;;;;;;;;;6231160;28;20122;-70
2023/10/16 00:55:50;;;;;;;1.95;0.40;;;;;;;;;;6223707;28;20053;-69
2023/10/16 00:58:53;;;;;;;0.50;0.30;;;;;;;;;;6244942;28;20064;-72
2023/10/16 01:02:07;;;;;;;1.13;0.30;;;;;;;;;;6232696;28;20349;-70
2023/10/16 01:05:09;;;;;;;0.93;0.40;;;;;;;;;;6222304;28;20056;-69
2023/10/16 01:08:12;;;;;;;1.20;0.38;;;;;;;;;;6229292;28;20062;-70
2023/10/16 01:11:15;;;;;;;0.95;0.50;;;;;;;;;;6224385;28;20080;-72
2023/10/16 01:14:17;;;;;;;2.05;0.45;;;;;;;;;;6228464;28;20054;-69
2023/10/16 01:17:29;;;;;;;0.55;0.40;;;;;;;;;;6232328;28;20258;-70
2023/10/16 01:20:33;;;;;;;1.42;0.50;;;;;;;;;;6235878;28;20053;-70
2023/10/16 01:23:44;;;;;;;;;;;;;;;;;;6244018;28;20109;-70
2023/10/16 01:26:45;;;;;;;0.73;0.40;;;;;;;;;;6237263;28;20221;-69
2023/10/16 01:29:52;;;;;;;0.75;0.32;;;;;;;;;;6248048;28;20076;-70
2023/10/16 01:33:10;;;;;;;0.93;0.50;;;;;;;;;;6243853;28;20112;-70
2023/10/16 01:36:13;;;;;;;1.73;0.43;;;;;;;;;;6244153;28;20147;-69
2023/10/16 01:42:46;;;;;;;1.33;0.38;;;;;;;;;;6241998;28;20116;-69
2023/10/16 01:45:51;;;;;;;0.93;0.47;;;;;;;;;;6246088;28;20349;-69
2023/10/16 01:48:55;;;;;;;0.60;0.30;;;;;;;;;;6242583;28;20049;-70
2023/10/16 01:51:57;;;;;;;0.73;0.35;;;;;;;;;;6246433;28;20053;-71
2023/10/16 01:55:01;;;;;;;0.95;0.40;;;;;;;;;;6248899;28;20065;-68
2023/10/16 01:58:04;;;;;;;1.92;0.22;;;;;;;;;;6247982;28;20052;-71
2023/10/16 02:01:05;;;;;;;0.70;0.22;;;;;;;;;;6254007;28;20053;-71
2023/10/16 02:04:07;;;;;;;0.52;0.28;;;;;;;;;;6252156;28;20049;-70
2023/10/16 02:07:11;;;;;;;2.08;0.20;;;;;;;;;;6253501;28;20057;-69
2023/10/16 02:10:15;;;;;;;0.63;0.20;;;;;;;;;;6248593;28;20572;-70
2023/10/16 02:13:19;;;;;;;0.85;0.30;;;;;;;;;;6240515;28;20068;-70
2023/10/16 02:16:25;;;;;;;0.93;0.30;;;;;;;;;;6236654;28;20079;-70
2023/10/16 02:19:27;;;;;;;1.05;0.22;;;;;;;;;;6244063;28;20041;-70
2023/10/16 02:22:32;;;;;;;2.15;0.40;;;;;;;;;;6248700;28;20281;-70
2023/10/16 02:25:38;;;;;;;0.80;0.30;;;;;;;;;;6247894;28;20353;-72
2023/10/16 02:28:40;;;;;;;2.28;0.28;;;;;;;;;;6246983;28;20353;-73
2023/10/16 02:31:45;;;;;;;0.32;0.20;;;;;;;;;;6246084;28;20041;-70
2023/10/16 02:34:50;;;;;;;1.25;0.30;;;;;;;;;;6243783;28;20095;-69
2023/10/16 02:38:02;;;;;;;1.35;0.50;;;;;;;;;;6260954;28;20337;-70
2023/10/16 02:41:07;;;;;;;0.40;0.20;;;;;;;;;;6250173;28;20064;-69
2023/10/16 02:44:17;;;;;;;2.28;0.40;;;;;;;;;;6256508;28;20113;-69
2023/10/16 02:47:25;;;;;;;0.17;0.10;;;;;;;;;;6252046;28;20290;-69
2023/10/16 02:50:28;;;;;;;0.85;0.32;;;;;;;;;;6257640;28;20040;-72
2023/10/16 02:53:33;;;;;;;1.63;0.38;;;;;;;;;;6261474;28;20344;-69
2023/10/16 02:56:37;;;;;;;4.28;0.50;;;;;;;;;;6259302;28;20053;-71
2023/10/16 02:59:39;;;;;;;0.22;0.20;;;;;;;;;;6254231;28;20058;-70
2023/10/16 03:02:47;;;;;;;1.35;0.40;;;;;;;;;;6257361;28;20091;-72
2023/10/16 03:05:49;;;;;;;0.22;0.20;;;;;;;;;;6253253;28;20061;-68
2023/10/16 03:08:51;;;;;;;0.77;0.20;;;;;;;;;;6251231;28;20049;-70
2023/10/16 03:11:57;;;;;;;0.50;0.20;;;;;;;;;;6253163;28;20099;-72
2023/10/16 03:15:01;;;;;;;0.88;0.47;;;;;;;;;;6256979;28;20084;-71
2023/10/16 03:18:05;;;;;;;0.52;0.30;;;;;;;;;;6257245;28;20152;-70
2023/10/16 03:21:27;;;;;;;3.13;0.40;;;;;;;;;;6255104;28;20065;-71
2023/10/16 03:24:34;;;;;;;3.90;0.50;;;;;;;;;;6254360;28;20068;-70
2023/10/16 03:27:44;;;;;;;0.80;0.40;;;;;;;;;;6248655;28;20432;-70
2023/10/16 03:30:47;;;;;;;1.58;0.43;;;;;;;;;;6258097;28;20053;-69
2023/10/16 03:33:48;;;;;;;0.65;0.40;;;;;;;;;;6253481;28;20058;-70
2023/10/16 03:36:54;;;;;;;3.70;0.40;;;;;;;;;;6255170;28;20053;-69
2023/10/16 03:40:03;;;;;;;1.00;0.50;;;;;;;;;;6256655;28;20057;-72
2023/10/16 03:43:06;;;;;;;0.80;0.30;;;;;;;;;;6257049;28;20045;-70
2023/10/16 03:46:07;;;;;;;2.17;0.40;;;;;;;;;;6251933;28;20054;-71
2023/10/16 03:49:11;;;;;;;0.47;0.22;;;;;;;;;;6251316;28;20046;-70
2023/10/16 03:52:13;;;;;;;0.40;0.30;;;;;;;;;;6256119;28;20053;-69
2023/10/16 03:55:22;;;;;;;3.58;0.40;;;;;;;;;;6245059;28;20270;-74
2023/10/16 03:58:27;;;;;;;0.40;0.30;;;;;;;;;;6240015;28;20054;-70
2023/10/16 04:01:28;;;;;;;1.40;0.25;;;;;;;;;;6254953;28;20049;-71
2023/10/16 04:04:30;;;;;;;1.85;0.30;;;;;;;;;;6255906;28;20051;-70
2023/10/16 04:07:32;;;;;;;3.58;0.47;;;;;;;;;;6246862;28;20346;-74
2023/10/16 04:10:34;;;;;;;0.40;0.30;;;;;;;;;;6255857;28;20053;-70
2023/10/16 04:13:45;;;;;;;0.88;0.40;;;;;;;;;;6253904;28;20100;-71
2023/10/16 04:16:54;;;;;;;2.30;0.40;;;;;;;;;;6253827;28;20345;-70
2023/10/16 04:20:30;;;;;;;2.60;0.50;;;;;;;;;;6255584;28;20053;-70
2023/10/16 04:23:29;;;;;;;1.98;0.40;;;;;;;;;;6253217;28;20091;-70
2023/10/16 04:26:35;;;;;;;1.45;0.35;;;;;;;;;;6247278;28;20113;-71
2023/10/16 04:29:45;;;;;;;2.63;0.68;;;;;;;;;;6256422;28;20135;-70
2023/10/16 04:43:16;;;;;;;1.75;0.45;;;;;;;;;;6254894;28;20342;-70
2023/10/16 04:46:22;;;;;;;1.13;0.40;;;;;;;;;;6251106;28;20329;-71
2023/10/16 04:49:28;;;;;;;3.88;0.35;;;;;;;;;;6253778;28;20063;-70
2023/10/16 04:56:04;;;;;;;0.40;0.20;;;;;;;;;;6255648;28;20091;-69
2023/10/16 04:59:12;;;;;;;2.88;0.47;;;;;;;;;;6257073;28;20054;-71
2023/10/16 05:02:29;;;;;;;3.35;0.68;;;;;;;;;;6252558;28;20053;-71
2023/10/16 05:05:46;;;;;;;2.33;0.30;;;;;;;;;;6251582;28;20045;-70
2023/10/16 05:09:53;;;;;;;1.02;0.28;;;;;;;;;;6253917;28;20057;-71
2023/10/16 05:19:04;;;;;;;4.32;0.50;;;;;;;;;;6207005;28;20061;-70
2023/10/16 05:22:09;;;;;;;2.88;0.50;;;;;;;;;;6228045;28;20064;-70
2023/10/16 06:15:20;;;;;;;5.20;0.70;;;;;;;;;;6244249;28;20045;-71
2023/10/16 06:18:22;;;;;;;4.88;0.93;;;;;;;;;;6246230;28;20049;-69
2023/10/16 06:21:25;;;;;;;1.70;0.57;;;;;;;;;;6235336;28;20053;-70
2023/10/16 06:24:32;;;;;;;1.77;1.00;;;;;;;;;;6244008;28;20260;-70
2023/10/16 06:27:34;;;;;;;2.30;0.50;;;;;;;;;;6237321;28;20263;-70
2023/10/16 06:30:37;;;;;;;5.65;0.70;;;;;;;;;;6239549;28;20069;-70
2023/10/16 06:33:41;;;;;;;6.40;0.80;;;;;;;;;;6239134;28;20345;-70
2023/10/16 06:36:44;;;;;;;4.32;0.50;;;;;;;;;;6230124;28;20057;-70
2023/10/16 06:39:47;;;;;;;3.08;0.88;;;;;;;;;;6226314;28;20093;-69
2023/10/16 06:42:49;;;;;;;7.43;0.55;;;;;;;;;;6222730;28;20060;-70
2023/10/16 06:45:55;;;;;;;1.58;0.52;;;;;;;;;;6224923;28;20061;-69
2023/10/16 06:48:57;;;;;;;5.93;0.90;;;;;;;;;;6224395;28;20060;-70
2023/10/16 06:51:59;;;;;;;3.70;0.70;;;;;;;;;;6236983;28;20046;-70
2023/10/16 06:55:02;;;;;;;5.90;1.20;;;;;;;;;;6230101;28;20058;-69
2023/10/16 06:58:05;;;;;;;4.05;0.60;;;;;;;;;;6223191;28;20093;-69
2023/10/16 07:01:07;;;;;;;2.22;0.60;;;;;;;;;;6220952;28;20073;-69
2023/10/16 07:04:11;;;;;;;0.70;0.40;;;;;;;;;;6229086;28;20326;-70
2023/10/16 07:07:15;;;;;;;;;;;;;;;;;;6223394;28;20050;-70
2023/10/16 07:10:18;;;;;;;;;;;;;;;;;;6248072;28;19932;-70
2023/10/16 07:13:27;;;;;;;4.82;1.35;;;;;;;;;;6227715;28;19917;-69
2023/10/16 07:16:30;;;;;;;1.45;0.40;;;;;;;;;;6225295;28;20053;-69
2023/10/16 07:19:35;;;;;;;5.10;0.50;;;;;;;;;;6220593;28;20280;-69
2023/10/16 07:22:36;;;;;;;2.30;0.75;;;;;;;;;;6228119;28;20108;-70
2023/10/16 07:25:47;;;;;;;1.45;0.60;;;;;;;;;;6222615;28;20053;-70
2023/10/16 07:28:49;;;;;;;3.67;0.50;;;;;;;;;;6236998;28;20266;-70
2023/10/16 07:31:54;;;;;;;2.05;0.43;;;;;;;;;;6225816;28;20282;-70
2023/10/16 07:34:55;;;;;;;6.35;0.57;;;;;;;;;;6223154;28;20112;-69
2023/10/16 07:37:58;;;;;;;2.97;0.80;;;;;;;;;;6225647;28;20061;-69
2023/10/16 07:41:01;;;;;;;4.53;0.70;;;;;;;;;;6220599;28;20345;-69
2023/10/16 07:44:04;;;;;;;3.25;0.45;;;;;;;;;;6229161;28;20061;-70
2023/10/16 07:47:06;;;;;;;2.30;0.50;;;;;;;;;;6229926;28;20317;-69
2023/10/16 07:50:09;;;;;;;8.05;0.90;;;;;;;;;;6229333;28;20330;-70
2023/10/16 07:53:17;;;;;;;2.40;0.45;;;;;;;;;;6228066;28;20046;-69
2023/10/16 07:56:25;;;;;;;1.92;0.35;;;;;;;;;;6228800;28;20050;-70
2023/10/16 07:59:28;;;;;;;3.63;0.50;;;;;;;;;;6229658;28;20052;-70
2023/10/16 08:02:29;;;;;;;1.27;0.50;;;;;;;;;;6236188;28;20114;-70
2023/10/16 08:05:31;;;;;;;2.05;0.70;;;;;;;;;;6233230;28;20477;-70
2023/10/16 08:08:37;;;;;;;9.02;0.68;;;;;;;;;;6234089;28;20050;-70
2023/10/16 08:11:42;;;;;;;3.22;0.98;;;;;;;;;;6227838;28;20061;-70
2023/10/16 08:14:45;;;;;;;4.47;0.80;;;;;;;;;;6227291;28;20065;-70
2023/10/16 08:17:46;;;;;;;4.35;1.33;;;;;;;;;;6226240;28;20338;-70
2023/10/16 08:21:00;;;;;;;4.72;0.77;;;;;;;;;;6232307;28;20377;-70
2023/10/16 08:24:01;;;;;;;2.50;0.32;;;;;;;;;;6233913;28;20046;-72
2023/10/16 08:27:10;;;;;;;1.98;0.50;;;;;;;;;;6231628;28;20279;-70
2023/10/16 08:30:25;;;;;;;4.63;0.50;;;;;;;;;;6232557;28;20149;-70
2023/10/16 08:33:32;;;;;;;1.85;0.30;;;;;;;;;;6225496;28;20343;-71
2023/10/16 08:36:33;;;;;;;2.92;0.68;;;;;;;;;;6220174;28;20050;-70
2023/10/16 08:39:36;;;;;;;4.65;0.45;;;;;;;;;;6223697;28;21264;-70
2023/10/16 08:42:41;;;;;;;1.95;0.40;;;;;;;;;;6232083;28;20076;-72
2023/10/16 08:45:48;;;;;;;3.45;0.80;;;;;;;;;;6232055;28;20091;-73
2023/10/16 08:48:52;;;;;;;3.25;0.40;;;;;;;;;;6227562;28;20042;-70
2023/10/16 08:51:55;;;;;;;2.28;0.50;;;;;;;;;;6227714;28;20046;-70
2023/10/16 08:55:02;;;;;;;4.40;0.63;;;;;;;;;;6221619;28;20050;-71
2023/10/16 08:58:05;;;;;;;2.67;0.50;;;;;;;;;;6226552;28;20058;-69
2023/10/16 09:01:08;;;;;;;4.72;0.65;;;;;;;;;;6240525;28;20363;-70
2023/10/16 09:04:11;;;;;;;4.05;0.52;;;;;;;;;;6233296;28;21000;-70
2023/10/16 09:07:16;;;;;;;3.20;0.45;;;;;;;;;;6227464;28;20045;-70
2023/10/16 09:10:21;;;;;;;2.78;0.70;;;;;;;;;;6241725;28;20060;-69
2023/10/16 09:13:26;;;;;;;8.15;0.80;;;;;;;;;;6245456;28;20356;-70
2023/10/16 09:16:31;;;;;;;7.43;1.13;;;;;;;;;;6250895;28;20117;-69
2023/10/16 09:19:34;;;;;;;5.22;0.40;;;;;;;;;;6251792;28;20060;-71
2023/10/16 09:22:39;;;;;;;2.08;0.40;;;;;;;;;;6249636;28;20125;-70
2023/10/16 09:25:45;;;;;;;1.48;0.40;;;;;;;;;;6253571;28;20349;-70
2023/10/16 09:28:49;;;;;;;3.10;0.40;;;;;;;;;;6250056;28;20057;-70
2023/10/16 09:31:51;;;;;;;2.83;0.47;;;;;;;;;;6247857;28;20064;-70
2023/10/16 09:34:53;;;;;;;3.47;0.93;;;;;;;;;;6252121;28;20044;-70
2023/10/16 09:37:57;;;;;;;5.30;0.75;;;;;;;;;;6254027;28;20053;-69
2023/10/16 09:41:37;;;;;;;6.57;0.95;;;;;;;;;;6255279;28;20120;-70
2023/10/16 09:44:37;;;;;;;3.03;0.22;;;;;;;;;;6251340;28;20057;-70
2023/10/16 09:47:48;;;;;;;1.92;0.82;;;;;;;;;;6251217;28;20392;-70
2023/10/16 09:50:52;;;;;;;3.30;0.47;;;;;;;;;;6246205;28;20069;-69
2023/10/16 09:53:55;;;;;;;2.35;0.60;;;;;;;;;;6246352;28;20273;-70
2023/10/16 09:56:59;;;;;;;4.53;0.80;;;;;;;;;;6252396;28;20242;-71
2023/10/16 10:00:23;;;;;;;1.70;0.47;;;;;;;;;;6257365;28;20245;-70
2023/10/16 10:03:25;;;;;;;2.53;0.75;;;;;;;;;;6253146;28;20060;-69
2023/10/16 10:06:34;;;;;;;3.58;0.55;;;;;;;;;;6248612;28;20293;-70
2023/10/16 10:09:42;;;;;;;3.65;0.60;;;;;;;;;;6246479;28;20270;-70
2023/10/16 10:12:47;;;;;;;7.10;1.05;;;;;;;;;;6247432;28;20108;-70
2023/10/16 10:15:53;;;;;;;2.65;0.60;;;;;;;;;;6257353;28;20337;-70
2023/10/16 10:19:01;;;;;;;2.22;0.90;;;;;;;;;;6253288;28;20277;-72
2023/10/16 10:22:16;;;;;;;2.58;0.90;;;;;;;;;;6257347;28;20045;-70
2023/10/16 10:25:35;;;;;;;3.85;0.80;;;;;;;;;;6252259;28;20041;-70
2023/10/16 10:28:40;;;;;;;7.55;1.15;;;;;;;;;;6220639;28;20342;-70
2023/10/16 10:31:44;;;;;;;5.03;0.98;;;;;;;;;;6221215;28;20052;-70
2023/10/16 10:34:47;;;;;;;4.70;0.90;;;;;;;;;;6228777;28;20056;-69
2023/10/16 10:37:49;;;;;;;5.35;0.93;;;;;;;;;;6245228;28;20054;-70
2023/10/16 10:41:20;;;;;;;4.63;1.20;;;;;;;;;;6225836;28;20053;-70
2023/10/16 10:44:30;;;;;;;3.38;0.95;;;;;;;;;;6118653;29;20075;-72
2023/10/16 10:47:33;;;;;;;5.15;0.70;;;;;;;;;;6119398;29;20352;-70
2023/10/16 10:50:38;;;;;;;3.13;0.75;;;;;;;;;;6116691;29;20059;-70
2023/10/16 10:53:52;;;;;;;7.82;1.08;;;;;;;;;;6120956;29;20349;-70
2023/10/16 10:56:59;;;;;;;7.05;1.20;;;;;;;;;;6121338;29;20059;-71
2023/10/16 11:00:22;;;;;;;4.55;1.05;;;;;;;;;;6119716;29;20298;-70
2023/10/16 11:03:33;;;;;;;5.82;1.05;;;;;;;;;;6115957;29;20051;-71
2023/10/16 11:06:39;;;;;;;3.72;1.00;;;;;;;;;;6119395;29;20375;-70
2023/10/16 11:09:42;;;;;;;5.30;1.02;;;;;;;;;;6121276;29;20308;-70
2023/10/16 11:12:44;;;;;;;4.40;1.00;;;;;;;;;;6116433;29;20056;-70
2023/10/16 11:15:47;;;;;;;14.25;1.08;;;;;;;;;;6118099;29;20092;-70
2023/10/16 11:18:59;;;;;;;2.00;0.60;;;;;;;;;;6139676;28;20093;-70
2023/10/16 11:22:02;;;;;;;6.55;0.77;;;;;;;;;;6232594;28;20112;-70
2023/10/16 11:25:04;;;;;;;4.65;0.90;;;;;;;;;;6228073;28;20116;-70
2023/10/16 11:28:08;;;;;;;5.13;1.17;;;;;;;;;;6222807;28;20046;-72
2023/10/16 11:31:11;;;;;;;6.03;1.30;;;;;;;;;;6228822;28;20092;-70
2023/10/16 11:34:21;;;;;;;4.72;0.80;;;;;;;;;;6229502;28;20054;-70
2023/10/16 11:37:25;;;;;;;6.22;0.80;;;;;;;;;;6252984;28;20049;-70
2023/10/16 11:40:33;;;;;;;3.42;0.75;;;;;;;;;;6225508;28;20234;-70
2023/10/16 11:43:38;;;;;;;4.25;0.70;;;;;;;;;;6240055;28;20159;-70
2023/10/16 11:46:46;;;;;;;6.63;0.95;;;;;;;;;;6227490;28;20054;-70
2023/10/16 11:49:55;;;;;;;3.97;0.90;;;;;;;;;;6230159;28;20081;-70
2023/10/16 11:52:57;;;;;;;1.85;0.60;;;;;;;;;;6231051;28;20129;-70
2023/10/16 11:55:59;;;;;;;6.85;1.23;;;;;;;;;;6243030;28;20046;-70
2023/10/16 11:59:03;;;;;;;;;;;;;;;;;;6232402;28;20109;-72
2023/10/16 12:02:11;;;;;;;5.65;1.20;;;;;;;;;;6227701;28;20206;-71
2023/10/16 12:05:14;;;;;;;9.45;4.68;;;;;;;;;;6230372;28;20219;-71
2023/10/16 12:08:18;;;;;;;;;;;;;;;;;;6231535;28;20053;-70
2023/10/16 12:11:20;;;;;;;24.95;11.25;;;;;;;;;;6230913;28;19924;-72
2023/10/16 12:14:23;;;;;;;15.60;8.00;;;;;;;;;;6230735;28;20245;-71
2023/10/16 12:17:28;;;;;;;13.43;6.70;;;;;;;;;;6231185;28;20047;-71
2023/10/16 12:20:31;;;;;;;16.17;8.30;;;;;;;;;;6230419;28;20076;-70
2023/10/16 12:23:34;;;;;;;18.25;10.15;;;;;;;;;;6226952;28;20114;-71
2023/10/16 12:26:36;;;;;;;3.80;0.80;;;;;;;;;;6227201;28;20061;-71
2023/10/16 12:29:41;;;;;;;4.80;0.88;;;;;;;;;;6228606;28;20132;-71
2023/10/16 12:32:43;;;;;;;1.90;0.90;;;;;;;;;;6227630;28;20068;-70
2023/10/16 12:35:47;;;;;;;1.17;0.65;;;;;;;;;;6225636;28;20125;-70
2023/10/16 12:38:49;;;;;;;3.13;0.80;;;;;;;;;;6230446;28;20096;-71
2023/10/16 12:41:52;;;;;;;2.88;1.00;;;;;;;;;;6229965;28;20089;-70
2023/10/16 12:44:54;;;;;;;5.60;1.02;;;;;;;;;;6222773;28;20052;-69
2023/10/16 12:47:56;;;;;;;5.25;0.90;;;;;;;;;;6227586;28;20089;-72
2023/10/16 12:51:00;;;;;;;2.67;0.50;;;;;;;;;;6224854;28;20096;-71
2023/10/16 12:54:03;;;;;;;2.20;0.80;;;;;;;;;;6241287;28;20361;-71
2023/10/16 12:57:06;;;;;;;10.63;1.15;;;;;;;;;;6235140;28;20335;-71
2023/10/16 13:00:15;;;;;;;6.68;1.08;;;;;;;;;;6228284;28;20091;-71
2023/10/16 13:03:20;;;;;;;3.97;0.80;;;;;;;;;;6236170;28;20109;-74
2023/10/16 13:06:25;;;;;;;4.03;0.75;;;;;;;;;;6228036;28;20050;-71
2023/10/16 13:09:30;;;;;;;2.55;0.73;;;;;;;;;;6229053;28;20042;-71
2023/10/16 13:12:32;;;;;;;3.42;0.75;;;;;;;;;;6244684;28;20049;-72
2023/10/16 13:15:34;;;;;;;7.18;0.80;;;;;;;;;;6235654;28;20109;-71
2023/10/16 13:18:36;;;;;;;2.10;0.70;;;;;;;;;;6229192;28;20066;-71
2023/10/16 13:21:41;;;;;;;12.95;1.33;;;;;;;;;;6228822;28;20057;-71
2023/10/16 13:24:43;;;;;;;1.73;0.80;;;;;;;;;;6234158;28;20057;-71
2023/10/16 13:27:45;;;;;;;4.68;0.80;;;;;;;;;;6231057;28;20111;-71
2023/10/16 13:30:48;;;;;;;3.40;0.60;;;;;;;;;;6229074;28;20242;-74
2023/10/16 13:33:50;;;;;;;;;;;;;;;;;;6234044;28;20111;-71
2023/10/16 13:37:00;;;;;;;2.78;0.50;;;;;;;;;;6228451;28;19917;-70
2023/10/16 13:40:04;;;;;;;5.53;0.95;;;;;;;;;;6224079;28;20350;-71
2023/10/16 13:43:10;;;;;;;4.00;1.00;;;;;;;;;;6223790;28;20105;-71
2023/10/16 13:46:13;;;;;;;3.28;0.90;;;;;;;;;;6227492;28;20089;-71
2023/10/16 13:49:16;;;;;;;5.18;1.15;;;;;;;;;;6232860;28;20052;-70
2023/10/16 13:52:19;;;;;;;1.10;0.70;;;;;;;;;;6233533;28;20113;-70
2023/10/16 13:55:21;;;;;;;2.00;0.70;;;;;;;;;;6239688;28;20046;-70
2023/10/16 13:58:23;;;;;;;6.60;0.87;;;;;;;;;;6237698;28;20107;-70
2023/10/16 14:01:25;;;;;;;4.72;0.80;;;;;;;;;;6245027;28;20077;-69
2023/10/16 14:04:32;;;;;;;4.97;1.00;;;;;;;;;;6232792;28;20052;-70
2023/10/16 14:07:36;;;;;;;1.90;0.55;;;;;;;;;;6239398;28;20046;-70
2023/10/16 14:10:45;;;;;;;4.75;0.80;;;;;;;;;;6235833;28;20053;-70
2023/10/16 14:13:48;;;;;;;3.15;0.77;;;;;;;;;;6238119;28;20096;-71
2023/10/16 14:16:51;;;;;;;3.40;0.93;;;;;;;;;;6242535;28;20265;-70
2023/10/16 14:19:53;;;;;;;2.97;0.82;;;;;;;;;;6235114;28;20864;-70
2023/10/16 14:22:59;;;;;;;4.22;0.93;;;;;;;;;;6234004;28;20068;-70
2023/10/16 14:26:00;;;;;;;3.28;0.75;;;;;;;;;;6233398;28;20054;-71
2023/10/16 14:29:03;;;;;;;6.22;1.55;;;;;;;;;;6241120;28;20061;-71
2023/10/16 14:32:05;;;;;;;27.65;14.35;;;;;;;;;;6245985;28;20061;-71
2023/10/16 14:35:08;;;;;;;12.23;5.25;;;;;;;;;;6245140;28;20040;-72
2023/10/16 14:38:11;;;;;;;2.55;1.02;;;;;;;;;;6247275;28;20356;-70
2023/10/16 14:41:15;;;;;;;5.00;1.42;;;;;;;;;;6247780;28;20344;-70
2023/10/16 14:44:18;;;;;;;3.25;0.65;;;;;;;;;;6251304;28;20053;-71
2023/10/16 14:47:20;;;;;;;6.95;0.93;;;;;;;;;;6249790;28;20075;-70
2023/10/16 14:50:24;;;;;;;2.40;1.10;;;;;;;;;;6262183;28;20061;-71
2023/10/16 14:53:29;;;;;;;5.75;1.02;;;;;;;;;;6258605;28;20081;-70
2023/10/16 14:56:31;;;;;;;1.63;0.60;;;;;;;;;;6258421;28;20064;-70
2023/10/16 14:59:34;;;;;;;4.32;0.68;;;;;;;;;;6256526;28;20334;-70
2023/10/16 15:02:37;;;;;;;2.88;0.75;;;;;;;;;;6259438;28;20282;-70
2023/10/16 15:05:40;;;;;;;1.80;0.57;;;;;;;;;;6260389;28;20548;-70
2023/10/16 15:08:44;;;;;;;4.55;1.00;;;;;;;;;;6255280;28;20099;-71
2023/10/16 15:11:49;;;;;;;4.18;1.20;;;;;;;;;;6260570;28;20073;-70
2023/10/16 15:14:51;;;;;;;4.18;0.80;;;;;;;;;;6250594;28;20275;-70
2023/10/16 15:17:54;;;;;;;2.45;1.00;;;;;;;;;;6265314;28;20052;-71
2023/10/16 15:20:56;;;;;;;11.80;1.20;;;;;;;;;;6256065;28;20059;-70
2023/10/16 15:23:59;;;;;;;4.90;0.95;;;;;;;;;;6254561;28;20063;-72
2023/10/16 15:27:00;;;;;;;7.68;1.25;;;;;;;;;;6254452;28;20040;-70
2023/10/16 15:30:02;;;;;;;5.18;0.88;;;;;;;;;;6259427;28;20046;-70
2023/10/16 15:33:06;;;;;;;12.43;4.88;;;;;;;;;;6253927;28;20326;-72
2023/10/16 15:36:08;;;;;;;41.67;16.17;;;;;;;;;;6254657;28;20049;-72
2023/10/16 15:39:15;;;;;;;66.38;33.88;;;;;;;;;;6251209;28;20046;-72
2023/10/16 15:42:20;;;;;;;13.30;5.03;;;;;;;;;;6258235;28;20049;-72
2023/10/16 15:45:24;;;;;;;21.17;11.88;;;;;;;;;;6260392;28;20181;-72
2023/10/16 15:48:26;;;;;;;8.02;2.95;;;;;;;;;;6258545;28;20104;-70
2023/10/16 15:51:32;;;;;;;4.75;0.90;;;;;;;;;;6256397;28;20087;-70
2023/10/16 15:54:35;;;;;;;4.05;0.85;;;;;;;;;;6255612;28;20226;-70
2023/10/16 15:57:37;;;;;;;11.43;0.90;;;;;;;;;;6256268;28;20053;-71
2023/10/16 16:00:40;;;;;;;2.13;0.80;;;;;;;;;;6260852;28;20061;-70
2023/10/16 16:03:42;;;;;;;8.55;1.13;;;;;;;;;;6255104;28;20081;-70
2023/10/16 16:06:44;;;;;;;4.50;1.30;;;;;;;;;;6255806;28;20048;-70
2023/10/16 16:09:47;;;;;;;4.05;1.00;;;;;;;;;;6252336;28;20376;-71
2023/10/16 16:12:49;;;;;;;3.95;1.23;;;;;;;;;;6248770;28;20065;-71
2023/10/16 16:15:51;;;;;;;7.68;1.00;;;;;;;;;;6248196;28;20050;-70
2023/10/16 16:18:53;;;;;;;4.05;0.90;;;;;;;;;;6250628;28;20101;-71
2023/10/16 16:21:54;;;;;;;8.98;0.63;;;;;;;;;;6249113;28;20060;-71
2023/10/16 16:24:58;;;;;;;3.63;1.33;;;;;;;;;;6255801;28;20139;-71
2023/10/16 16:28:00;;;;;;;6.03;1.05;;;;;;;;;;6254703;28;20082;-70
2023/10/16 16:31:02;;;;;;;7.28;1.15;;;;;;;;;;6253225;28;20117;-73
2023/10/16 16:34:04;;;;;;;4.03;0.65;;;;;;;;;;6250728;28;20065;-70
2023/10/16 16:37:06;;;;;;;4.25;1.00;;;;;;;;;;6247908;28;20140;-71
2023/10/16 16:40:10;;;;;;;3.13;0.68;;;;;;;;;;6256103;28;20345;-74
2023/10/16 16:43:12;;;;;;;7.18;0.90;;;;;;;;;;6248313;28;20077;-70
2023/10/16 16:46:14;;;;;;;5.65;0.80;;;;;;;;;;6256767;28;20072;-71
2023/10/16 16:49:16;;;;;;;2.65;1.27;;;;;;;;;;6225810;28;20345;-71
2023/10/16 16:52:19;;;;;;;7.18;1.75;;;;;;;;;;6238529;28;20045;-71
2023/10/16 16:55:23;;;;;;;4.43;1.37;;;;;;;;;;6245122;28;20053;-70
2023/10/16 16:58:24;;;;;;;;;;;;;;;;;;6242900;28;20057;-70
2023/10/16 17:01:26;;;;;;;2.28;0.70;;;;;;;;;;6241461;28;19932;-70
2023/10/16 17:04:28;;;;;;;3.38;0.70;;;;;;;;;;6241199;28;20069;-71
2023/10/16 17:07:31;;;;;;;2.95;0.80;;;;;;;;;;6241054;28;20053;-71
2023/10/16 17:10:34;;;;;;;2.22;0.70;;;;;;;;;;6223022;28;20061;-71
2023/10/16 17:13:36;;;;;;;3.97;0.77;;;;;;;;;;6224501;28;20319;-70
2023/10/16 17:16:37;;;;;;;2.95;0.90;;;;;;;;;;6223380;28;20537;-70
2023/10/16 17:19:39;;;;;;;4.13;1.13;;;;;;;;;;6242989;28;20050;-70
2023/10/16 17:22:41;;;;;;;1.42;0.73;;;;;;;;;;6240104;28;20056;-70
2023/10/16 17:25:44;;;;;;;3.75;0.80;;;;;;;;;;6241949;28;20053;-71
2023/10/16 17:28:47;;;;;;;3.13;1.10;;;;;;;;;;6235563;28;20099;-71
2023/10/16 17:31:50;;;;;;;6.88;0.82;;;;;;;;;;6238880;28;20057;-70
2023/10/16 17:34:52;;;;;;;3.97;1.00;;;;;;;;;;6241085;28;20473;-69
2023/10/16 17:38:00;;;;;;;4.07;1.05;;;;;;;;;;6226619;28;21519;-70
2023/10/16 17:41:04;;;;;;;2.95;0.93;;;;;;;;;;6227064;28;20057;-70
2023/10/16 17:44:06;;;;;;;3.08;1.10;;;;;;;;;;6226598;28;20057;-70
2023/10/16 17:47:10;;;;;;;4.65;0.90;;;;;;;;;;6230078;28;20058;-70
2023/10/16 17:50:12;;;;;;;2.85;0.93;;;;;;;;;;6226858;28;20049;-70
2023/10/16 17:53:14;;;;;;;4.47;0.85;;;;;;;;;;6226849;28;20052;-71
2023/10/16 17:56:17;;;;;;;5.28;1.02;;;;;;;;;;6227013;28;20253;-71
2023/10/16 17:59:19;;;;;;;4.07;0.90;;;;;;;;;;6226019;28;20088;-69
2023/10/16 18:02:20;;;;;;;8.40;0.90;;;;;;;;;;6222199;28;20042;-72
2023/10/16 18:05:23;;;;;;;4.97;0.80;;;;;;;;;;6230358;28;20333;-74
2023/10/16 18:08:25;;;;;;;4.97;0.90;;;;;;;;;;6227947;28;20053;-70
2023/10/16 18:11:29;;;;;;;4.05;0.82;;;;;;;;;;6220252;28;20342;-71
2023/10/16 18:14:38;;;;;;;5.53;0.95;;;;;;;;;;6225759;28;20057;-71
2023/10/16 18:17:40;;;;;;;6.57;0.93;;;;;;;;;;6229777;28;20053;-71
2023/10/16 18:20:42;;;;;;;5.55;1.10;;;;;;;;;;6221121;28;20058;-70
2023/10/16 18:23:43;;;;;;;7.47;1.10;;;;;;;;;;6228659;28;20069;-70
2023/10/16 18:26:48;;;;;;;7.20;1.80;;;;;;;;;;6233252;28;20057;-71
2023/10/16 18:29:49;;;;;;;5.65;1.20;;;;;;;;;;6216420;28;20112;-70
2023/10/16 18:32:51;;;;;;;3.70;1.63;;;;;;;;;;6228332;28;20045;-72
2023/10/16 18:35:53;;;;;;;5.05;0.95;;;;;;;;;;6225814;28;20124;-70
2023/10/16 18:38:55;;;;;;;4.05;1.10;;;;;;;;;;6228530;28;20305;-71
2023/10/16 18:41:58;;;;;;;3.60;0.70;;;;;;;;;;6224579;28;20114;-70
2023/10/16 18:45:00;;;;;;;5.90;0.93;;;;;;;;;;6225473;28;20101;-71
2023/10/16 18:48:05;;;;;;;3.78;1.13;;;;;;;;;;6224866;28;20054;-71
2023/10/16 18:51:07;;;;;;;18.45;8.23;;;;;;;;;;6220482;28;20045;-71
2023/10/16 18:54:09;;;;;;;4.85;1.90;;;;;;;;;;6229671;28;20046;-70
2023/10/16 18:57:13;;;;;;;5.45;1.00;;;;;;;;;;6225619;28;20714;-70
2023/10/16 19:00:17;;;;;;;4.00;1.20;;;;;;;;;;6228186;28;20077;-70
2023/10/16 19:03:20;;;;;;;10.93;1.58;;;;;;;;;;6220941;28;20058;-71
2023/10/16 19:06:23;;;;;;;1.80;1.00;;;;;;;;;;6225063;28;20063;-70
2023/10/16 19:09:27;;;;;;;4.05;1.55;;;;;;;;;;6219420;28;20089;-72
2023/10/16 19:12:30;;;;;;;3.80;1.20;;;;;;;;;;6243026;28;20158;-70
2023/10/16 19:15:33;;;;;;;3.83;1.50;;;;;;;;;;6231378;28;20054;-70
2023/10/16 19:18:35;;;;;;;7.60;1.30;;;;;;;;;;6224172;28;20057;-70
2023/10/16 19:21:38;;;;;;;3.05;1.08;;;;;;;;;;6233658;28;20077;-70
2023/10/16 19:24:40;;;;;;;4.67;1.40;;;;;;;;;;6224192;28;20062;-70
2023/10/16 19:27:44;;;;;;;7.72;1.23;;;;;;;;;;6217361;28;20472;-70
2023/10/16 19:30:46;;;;;;;3.97;1.60;;;;;;;;;;6223353;28;20344;-69
2023/10/16 19:33:51;;;;;;;3.35;1.30;;;;;;;;;;6230344;28;20342;-69
2023/10/16 19:36:53;;;;;;;6.13;1.50;;;;;;;;;;6229846;28;20038;-70
2023/10/16 19:39:55;;;;;;;6.40;1.40;;;;;;;;;;6232898;28;20364;-69